Time;durP1;ratioP1;P1;durP2;ratioP2;P2;SDS_P1;SDS_P2;PMS_P1;PMS_P2;Temp;Humidity;BMP_temperature;BMP_pressure;BME280_temperature;BME280_humidity;BME280_pressure;Samples;Min_cycle;Max_cycle;Signal;HPM_P1;HPM_P2
2023/10/17 00:01:47;;;;;;;3.20;2.50;;;;;;;9.14;100.00;99585.58;108317;1252;70841;-62
2023/10/17 00:06:58;;;;;;;2.30;2.00;;;;;;;9.20;100.00;99578.86;108478;1254;60594;-62
2023/10/17 00:09:26;;;;;;;2.90;2.40;;;;;;;9.20;100.00;99582.73;108527;1253;59754;-61
2023/10/17 00:14:27;;;;;;;3.10;2.20;;;;;;;9.20;100.00;99589.20;108621;1253;69229;-62
2023/10/17 00:16:55;;;;;;;2.80;2.00;;;;;;;9.24;100.00;99592.36;108574;1251;72357;-63
2023/10/17 00:19:28;;;;;;;3.00;2.20;;;;;;;9.28;100.00;99599.93;108683;1251;60564;-61
2023/10/17 00:21:55;;;;;;;3.60;2.50;;;;;;;9.25;100.00;99598.98;108660;1251;60688;-62
2023/10/17 00:24:23;;;;;;;5.20;2.30;;;;;;;9.20;100.00;99606.52;108559;1251;73575;-62
2023/10/17 00:26:51;;;;;;;4.70;2.60;;;;;;;9.18;100.00;99606.23;108589;1251;69330;-61
2023/10/17 00:29:19;;;;;;;3.50;2.50;;;;;;;9.17;100.00;99606.77;108566;1251;72340;-62
2023/10/17 00:31:48;;;;;;;2.30;2.10;;;;;;;9.27;100.00;99604.48;108427;1251;60656;-63
2023/10/17 00:34:16;;;;;;;4.30;2.90;;;;;;;9.34;100.00;99601.59;108521;1251;60680;-66
2023/10/17 00:39:31;;;;;;;3.10;2.40;;;;;;;9.33;100.00;99607.40;108534;1251;69286;-66
2023/10/17 00:44:40;;;;;;;2.90;2.40;;;;;;;9.37;100.00;99606.56;108660;1251;60551;-67
2023/10/17 00:47:11;;;;;;;6.30;3.10;;;;;;;9.33;100.00;99610.54;108599;1251;60211;-67
2023/10/17 00:49:44;;;;;;;2.90;2.40;;;;;;;9.40;100.00;99616.61;108641;1250;74529;-66
2023/10/17 00:52:25;;;;;;;2.80;2.50;;;;;;;9.41;100.00;99614.48;108674;1251;69025;-66
2023/10/17 00:54:53;;;;;;;3.80;2.60;;;;;;;9.36;100.00;99616.20;108316;1252;72451;-66
2023/10/17 00:57:27;;;;;;;;;;;;;;;9.42;100.00;99614.06;108689;1251;59468;-66
2023/10/17 00:59:56;;;;;;;2.40;2.00;;;;;;;9.44;100.00;99615.41;108662;1250;59430;-66
2023/10/17 01:02:24;;;;;;;3.30;2.70;;;;;;;9.45;100.00;99616.05;108631;1254;72464;-65
2023/10/17 01:04:58;;;;;;;4.20;2.70;;;;;;;9.51;100.00;99622.64;108583;1251;69052;-65
2023/10/17 01:07:29;;;;;;;3.00;2.60;;;;;;;9.55;100.00;99624.41;108672;1251;72378;-66
2023/10/17 01:10:13;;;;;;;4.60;2.50;;;;;;;9.51;100.00;99626.67;108690;1254;60933;-67
2023/10/17 01:15:32;;;;;;;3.00;2.80;;;;;;;9.57;100.00;99631.70;108533;1251;73724;-66
2023/10/17 01:18:06;;;;;;;2.50;2.30;;;;;;;9.62;100.00;99630.44;108367;1253;69331;-66
2023/10/17 01:20:34;;;;;;;2.20;2.00;;;;;;;9.69;100.00;99633.48;108516;1254;72460;-66
2023/10/17 01:23:03;;;;;;;;;;;;;;;9.73;100.00;99640.31;108588;1251;60957;-66
2023/10/17 01:25:41;;;;;;;3.30;2.20;;;;;;;9.76;100.00;99644.59;108375;1253;58785;-66
2023/10/17 01:29:12;;;;;;;4.00;2.80;;;;;;;9.25;100.00;99650.55;103269;1291;601211;-66
2023/10/17 01:31:43;;;;;;;4.70;2.40;;;;;;;9.71;100.00;99649.00;106629;1266;60676;-67
2023/10/17 01:34:14;;;;;;;5.80;2.60;;;;;;;9.70;100.00;99653.06;107651;1256;59033;-67
2023/10/17 01:36:43;;;;;;;3.90;2.60;;;;;;;9.73;100.00;99655.55;107310;1255;70860;-67
2023/10/17 01:39:11;;;;;;;2.90;2.60;;;;;;;9.73;100.00;99658.02;105243;1259;69194;-66
2023/10/17 01:41:42;;;;;;;2.80;2.50;;;;;;;9.65;100.00;99663.74;103896;1259;395743;-69
2023/10/17 01:44:10;;;;;;;3.30;3.00;;;;;;;9.64;100.00;99670.29;104349;1275;60789;-65
2023/10/17 01:46:38;;;;;;;3.50;2.90;;;;;;;9.52;100.00;99668.98;104698;1260;59700;-64
2023/10/17 01:49:10;;;;;;;4.40;2.70;;;;;;;9.54;100.00;99670.27;104499;1262;71980;-65
2023/10/17 01:51:41;;;;;;;3.80;2.40;;;;;;;9.56;100.00;99671.27;104325;1262;70278;-64
2023/10/17 01:54:11;;;;;;;3.70;3.30;;;;;;;9.55;100.00;99670.27;105721;1255;72354;-65
2023/10/17 01:56:40;;;;;;;3.40;2.90;;;;;;;9.55;100.00;99676.55;107933;1254;60710;-65
2023/10/17 01:59:17;;;;;;;6.60;2.90;;;;;;;9.57;100.00;99678.92;104901;1254;59795;-65
2023/10/17 02:01:46;;;;;;;5.00;3.10;;;;;;;9.60;100.00;99683.71;104390;1270;72896;-64
2023/10/17 02:04:19;;;;;;;4.40;3.20;;;;;;;9.54;100.00;99684.98;105144;1261;68432;-66
2023/10/17 02:06:47;;;;;;;3.50;2.90;;;;;;;9.52;100.00;99687.88;104423;1259;72960;-65
2023/10/17 02:12:14;;;;;;;3.50;3.10;;;;;;;9.54;100.00;99691.66;104100;1254;60443;-64
2023/10/17 02:14:41;;;;;;;;;;;;;;;9.54;100.00;99692.88;104426;1260;73463;-64
2023/10/17 02:17:11;;;;;;;4.30;3.30;;;;;;;9.52;100.00;99691.19;104384;1263;69384;-65
2023/10/17 02:19:39;;;;;;;3.80;3.00;;;;;;;9.51;100.00;99693.86;104394;1260;72887;-62
2023/10/17 02:22:09;;;;;;;3.10;2.80;;;;;;;9.54;100.00;99696.55;104294;1256;60614;-63
2023/10/17 02:24:37;;;;;;;3.20;2.90;;;;;;;9.56;100.00;99696.66;104334;1261;59856;-64
2023/10/17 02:27:09;;;;;;;4.70;3.20;;;;;;;9.56;100.00;99701.05;107747;1255;73014;-64
2023/10/17 02:29:39;;;;;;;5.70;3.50;;;;;;;9.49;100.00;99695.33;104613;1257;70079;-63
2023/10/17 02:32:11;;;;;;;5.70;3.50;;;;;;;9.50;100.00;99700.88;104386;1262;71482;-63
2023/10/17 02:34:46;;;;;;;3.40;3.10;;;;;;;9.58;100.00;99700.96;104277;1260;60942;-62
2023/10/17 02:37:17;;;;;;;3.80;3.00;;;;;;;9.63;100.00;99702.15;104584;1259;60732;-62
2023/10/17 02:39:44;;;;;;;3.50;3.00;;;;;;;9.66;100.00;99701.16;104358;1268;72656;-63
2023/10/17 02:42:12;;;;;;;5.80;3.60;;;;;;;9.67;100.00;99705.86;104376;1257;70153;-62
2023/10/17 02:44:40;;;;;;;;;;;;;;;9.66;100.00;99707.66;104369;1274;71784;-62
2023/10/17 02:47:11;;;;;;;;;;;;;;;9.64;100.00;99710.35;104258;1260;60643;-63
2023/10/17 02:49:40;;;;;;;5.50;3.30;;;;;;;9.54;100.00;99708.80;104157;1262;59705;-63
2023/10/17 02:52:08;;;;;;;3.60;3.20;;;;;;;9.51;100.00;99709.24;104287;1259;72855;-66
2023/10/17 02:57:23;;;;;;;3.10;2.90;;;;;;;9.56;100.00;99717.30;104307;1259;72813;-62
2023/10/17 02:59:51;;;;;;;3.70;3.40;;;;;;;9.53;100.00;99720.41;104522;1259;59800;-64
2023/10/17 03:02:25;;;;;;;6.50;3.60;;;;;;;9.43;100.00;99721.98;104363;1258;59742;-63
2023/10/17 03:04:59;;;;;;;4.60;3.30;;;;;;;9.39;100.00;99720.56;104495;1253;73058;-62
2023/10/17 03:07:30;;;;;;;4.00;3.50;;;;;;;9.40;100.00;99721.73;104275;1259;69329;-63
2023/10/17 03:09:58;;;;;;;6.30;3.20;;;;;;;9.43;100.00;99725.29;104618;1257;72420;-61
2023/10/17 03:12:29;;;;;;;5.00;3.30;;;;;;;9.46;100.00;99721.54;104613;1259;60998;-66
2023/10/17 03:17:27;;;;;;;3.80;3.30;;;;;;;9.37;100.00;99726.22;104284;1259;72880;-62
2023/10/17 03:19:57;;;;;;;4.80;3.60;;;;;;;9.42;100.00;99728.31;104451;1259;69184;-61
2023/10/17 03:22:27;;;;;;;5.60;3.70;;;;;;;9.47;100.00;99732.86;104345;1253;72395;-63
2023/10/17 03:27:48;;;;;;;3.20;2.90;;;;;;;9.55;100.00;99736.23;108302;1253;59776;-64
2023/10/17 03:30:21;;;;;;;4.10;2.90;;;;;;;9.59;100.00;99743.95;104730;1257;73708;-65
2023/10/17 03:35:28;;;;;;;3.00;2.50;;;;;;;9.51;100.00;99750.71;104642;1256;73329;-62
2023/10/17 03:37:56;;;;;;;3.10;2.70;;;;;;;9.50;100.00;99751.27;104677;1258;60614;-63
2023/10/17 03:40:51;;;;;;;3.50;3.20;;;;;;;9.48;100.00;99752.25;104753;1252;59726;-63
2023/10/17 03:43:28;;;;;;;4.00;3.00;;;;;;;9.52;100.00;99754.03;104488;1266;72984;-63
2023/10/17 03:46:03;;;;;;;3.00;2.80;;;;;;;9.49;100.00;99760.42;104428;1253;68978;-63
2023/10/17 03:48:36;;;;;;;5.00;2.90;;;;;;;9.46;100.00;99763.67;104439;1258;72379;-63
2023/10/17 03:53:42;;;;;;;4.20;2.70;;;;;;;9.48;100.00;99767.98;104586;1258;59722;-63
2023/10/17 03:56:11;;;;;;;4.40;2.40;;;;;;;9.49;100.00;99767.44;104435;1259;71731;-63
2023/10/17 03:58:52;;;;;;;4.20;2.10;;;;;;;9.48;100.00;99770.24;108421;1253;70069;-63
2023/10/17 04:01:22;;;;;;;4.20;2.40;;;;;;;9.45;100.00;99766.35;107330;1257;72895;-63
2023/10/17 04:03:54;;;;;;;2.90;2.60;;;;;;;9.42;100.00;99771.70;104517;1256;60776;-62
2023/10/17 04:06:34;;;;;;;3.90;2.80;;;;;;;9.32;100.00;99773.96;104513;1259;60633;-62
2023/10/17 04:09:26;;;;;;;2.00;1.80;;;;;;;9.32;100.00;99774.52;104778;1258;72734;-63
2023/10/17 04:11:58;;;;;;;4.60;2.00;;;;;;;9.27;100.00;99777.64;105099;1257;70032;-62
2023/10/17 04:14:33;;;;;;;2.60;2.10;;;;;;;9.25;100.00;99777.74;104370;1267;72453;-65
2023/10/17 04:17:05;;;;;;;2.10;1.90;;;;;;;9.25;100.00;99777.91;104354;1258;60621;-65
2023/10/17 04:19:33;;;;;;;2.20;2.00;;;;;;;9.24;100.00;99784.41;104346;1257;59781;-64
2023/10/17 04:22:02;;;;;;;;;;;;;;;9.20;100.00;99786.66;104448;1275;72856;-64
2023/10/17 04:24:48;;;;;;;2.20;1.80;;;;;;;9.20;100.00;99792.79;104797;1251;68351;-67
2023/10/17 04:29:56;;;;;;;3.90;2.70;;;;;;;9.15;100.00;99798.02;106509;1256;61597;-63
2023/10/17 04:32:28;;;;;;;3.30;3.00;;;;;;;9.06;100.00;99805.31;104504;1258;59710;-64
2023/10/17 04:34:57;;;;;;;5.50;2.80;;;;;;;8.99;100.00;99804.52;104464;1255;73024;-65
2023/10/17 04:37:25;;;;;;;;;;;;;;;8.96;100.00;99813.15;105476;1253;70142;-65
2023/10/17 04:45:20;;;;;;;4.70;3.30;;;;;;;8.89;100.00;99827.56;104423;1258;60601;-65
2023/10/17 04:47:54;;;;;;;3.70;3.10;;;;;;;8.86;100.00;99830.45;104566;1253;73031;-65
2023/10/17 04:50:40;;;;;;;3.90;2.90;;;;;;;8.87;100.00;99831.48;104461;1258;69392;-69
2023/10/17 13:45:27;;;;;;;1.70;1.10;;;;;;;17.46;35.80;99936.64;101927;1290;601339;-59
2023/10/17 13:47:55;;;;;;;1.30;1.00;;;;;;;17.64;34.31;99936.91;103807;1267;59886;-58
2023/10/17 13:50:23;;;;;;;1.50;1.10;;;;;;;17.60;35.36;99937.36;104094;1267;59860;-58
2023/10/17 13:52:54;;;;;;;2.10;1.20;;;;;;;17.46;34.77;99934.17;103745;1270;72062;-59
2023/10/17 13:55:25;;;;;;;2.30;1.30;;;;;;;17.19;34.22;99936.53;103972;1269;69629;-58
2023/10/17 13:58:00;;;;;;;1.10;0.90;;;;;;;16.99;35.29;99934.65;103105;1270;1175836;-59
2023/10/17 14:03:17;;;;;;;3.90;1.20;;;;;;;16.59;36.15;99934.66;104161;1263;59675;-63
2023/10/17 14:05:47;;;;;;;3.00;1.00;;;;;;;16.38;36.19;99939.70;104047;1270;71161;-58
2023/10/17 14:08:16;;;;;;;2.30;1.20;;;;;;;16.12;36.66;99940.06;104306;1270;69157;-57
2023/10/17 14:10:46;;;;;;;1.50;1.20;;;;;;;15.88;37.06;99936.73;104353;1263;73168;-57
2023/10/17 14:13:17;;;;;;;1.80;1.40;;;;;;;15.74;37.63;99937.34;104063;1269;59898;-58
2023/10/17 14:15:45;;;;;;;2.20;1.10;;;;;;;15.63;38.16;99936.97;107154;1263;59679;-57
2023/10/17 14:18:16;;;;;;;3.30;1.50;;;;;;;15.44;38.52;99939.98;105962;1263;73625;-57
2023/10/17 14:23:57;;;;;;;1.30;0.90;;;;;;;14.86;38.50;99935.34;103603;1276;71412;-58
2023/10/17 14:26:27;;;;;;;1.90;1.00;;;;;;;14.69;39.12;99930.60;103832;1272;60433;-57
2023/10/17 14:29:02;;;;;;;2.30;1.20;;;;;;;14.67;39.45;99933.74;104258;1261;60562;-59
2023/10/17 14:31:31;;;;;;;2.20;1.40;;;;;;;14.58;39.74;99931.59;104099;1268;73312;-57
2023/10/17 14:33:59;;;;;;;3.00;1.50;;;;;;;14.42;39.54;99932.25;104109;1275;69114;-57
2023/10/17 14:36:27;;;;;;;2.30;1.50;;;;;;;14.25;39.81;99933.88;104180;1260;72542;-57
2023/10/17 14:38:55;;;;;;;;;;;;;;;14.06;40.12;99934.51;104203;1266;59772;-58
2023/10/17 14:41:23;;;;;;;;;;;;;;;13.95;40.24;99931.92;104091;1261;60068;-57
2023/10/17 14:43:51;;;;;;;1.50;1.20;;;;;;;13.83;40.57;99931.84;104056;1260;72855;-60
2023/10/17 14:46:21;;;;;;;1.20;1.10;;;;;;;13.72;41.09;99937.87;104218;1260;70016;-58
2023/10/17 14:48:49;;;;;;;1.40;1.20;;;;;;;13.64;41.33;99940.89;104142;1263;72356;-59
2023/10/17 14:51:18;;;;;;;2.70;1.10;;;;;;;13.56;41.44;99945.19;104291;1266;60003;-60
2023/10/17 14:53:46;;;;;;;1.90;1.60;;;;;;;13.47;41.72;99942.11;104067;1263;59676;-59
2023/10/17 14:56:20;;;;;;;1.70;1.30;;;;;;;13.37;41.71;99948.75;103973;1261;73693;-58
2023/10/17 14:58:49;;;;;;;2.20;1.30;;;;;;;13.19;41.93;99937.64;103881;1261;69658;-58
2023/10/17 15:01:18;;;;;;;1.20;1.10;;;;;;;13.08;42.37;99946.79;103994;1261;73339;-58
2023/10/17 15:03:46;;;;;;;;;;;;;;;12.96;42.40;99948.77;104108;1263;60414;-60
2023/10/17 15:06:14;;;;;;;1.20;1.10;;;;;;;12.76;42.75;99951.11;104034;1261;59675;-58
2023/10/17 15:08:43;;;;;;;3.90;1.80;;;;;;;12.71;42.85;99953.50;105152;1260;74301;-58
2023/10/17 15:11:11;;;;;;;1.40;1.10;;;;;;;12.59;42.98;99945.08;104838;1254;69684;-59
2023/10/17 15:13:39;;;;;;;2.90;1.50;;;;;;;12.57;43.22;99952.03;104805;1253;71432;-59
2023/10/17 15:16:20;;;;;;;3.50;2.00;;;;;;;12.50;43.39;99953.73;104580;1253;59759;-58
2023/10/17 15:18:51;;;;;;;2.60;2.20;;;;;;;12.39;43.88;99952.83;104971;1253;59822;-58
2023/10/17 15:21:21;;;;;;;3.30;2.80;;;;;;;12.30;44.10;99957.97;104825;1251;72337;-58
2023/10/17 15:23:50;;;;;;;3.30;3.00;;;;;;;12.29;44.30;99954.70;104526;1251;69759;-58
2023/10/17 15:26:24;;;;;;;3.20;2.90;;;;;;;12.24;44.31;99961.61;104578;1254;72822;-58
2023/10/17 15:28:53;;;;;;;4.90;3.40;;;;;;;12.17;44.74;99960.66;104398;1251;60640;-58
2023/10/17 15:31:21;;;;;;;4.20;3.20;;;;;;;12.05;44.72;99959.95;104268;1253;60672;-58
2023/10/17 15:33:49;;;;;;;;;;;;;;;11.91;45.28;99958.29;107329;1251;72734;-57
2023/10/17 15:36:20;;;;;;;3.60;2.80;;;;;;;11.78;45.74;99962.84;107843;1253;68878;-58
2023/10/17 15:38:49;;;;;;;4.50;2.80;;;;;;;11.67;46.11;99965.97;104631;1257;72495;-57
2023/10/17 15:41:17;;;;;;;3.50;2.70;;;;;;;11.61;46.18;99964.27;105084;1252;59704;-58
2023/10/17 15:43:45;;;;;;;3.30;2.70;;;;;;;11.56;46.47;99965.20;104485;1267;59749;-57
2023/10/17 15:46:14;;;;;;;3.20;2.30;;;;;;;11.52;46.96;99967.45;105334;1251;72198;-61
2023/10/17 15:48:42;;;;;;;3.10;2.50;;;;;;;11.43;47.06;99956.75;104794;1261;68723;-59
2023/10/17 15:51:17;;;;;;;3.80;2.50;;;;;;;11.46;47.32;99972.45;104582;1254;72513;-59
2023/10/17 15:53:45;;;;;;;3.40;2.80;;;;;;;11.35;47.88;99975.70;104831;1251;59637;-59
2023/10/17 15:56:13;;;;;;;5.20;3.60;;;;;;;11.29;48.02;99976.98;104990;1251;60111;-57
2023/10/17 15:58:41;;;;;;;3.80;3.00;;;;;;;11.20;48.61;99978.38;104704;1251;73320;-59
2023/10/17 16:01:12;;;;;;;4.60;2.60;;;;;;;11.10;48.57;99977.94;104522;1253;69008;-57
2023/10/17 16:03:42;;;;;;;5.20;3.10;;;;;;;11.06;48.83;99984.58;104605;1253;72447;-58
2023/10/17 16:06:11;;;;;;;4.00;2.90;;;;;;;11.02;49.22;99981.91;104608;1256;59691;-57
2023/10/17 16:08:40;;;;;;;;;;;;;;;11.01;49.31;99985.46;104325;1266;60368;-57
2023/10/17 16:11:08;;;;;;;5.00;3.40;;;;;;;11.02;49.36;99982.44;104315;1257;72813;-57
2023/10/17 16:13:38;;;;;;;;;;;;;;;10.94;49.39;99980.13;104867;1256;69187;-57
2023/10/17 16:16:06;;;;;;;3.80;2.90;;;;;;;10.79;49.98;99986.30;106271;1254;71239;-58
2023/10/17 16:18:37;;;;;;;4.30;2.80;;;;;;;10.68;50.22;99989.19;107968;1251;59556;-59
2023/10/17 16:21:11;;;;;;;5.10;3.30;;;;;;;10.60;50.65;99990.55;108314;1254;59858;-58
2023/10/17 16:23:39;;;;;;;4.40;3.30;;;;;;;10.54;50.99;99993.20;104549;1265;72881;-57
2023/10/17 16:26:08;;;;;;;5.80;3.50;;;;;;;10.52;51.44;99991.20;104674;1254;68738;-57
2023/10/17 16:28:36;;;;;;;5.30;3.50;;;;;;;10.47;52.09;99996.27;104507;1257;73579;-57
2023/10/17 16:31:06;;;;;;;;;;;;;;;10.40;52.30;99997.40;104325;1251;59733;-58
2023/10/17 16:33:35;;;;;;;4.70;3.40;;;;;;;10.33;52.92;99996.77;104433;1256;59755;-55
2023/10/17 16:36:03;;;;;;;6.60;3.70;;;;;;;10.25;53.29;99997.39;104513;1257;72132;-55
2023/10/17 16:38:30;;;;;;;5.60;3.80;;;;;;;10.24;53.05;99999.01;104520;1251;69730;-56
2023/10/17 16:40:59;;;;;;;5.10;3.90;;;;;;;10.23;54.13;100003.94;104400;1260;71439;-57
2023/10/17 16:43:28;;;;;;;4.50;3.30;;;;;;;10.22;53.88;100001.34;104389;1255;60025;-56
2023/10/17 16:45:59;;;;;;;7.20;4.20;;;;;;;10.17;55.15;100009.58;104424;1260;59835;-55
2023/10/17 16:48:29;;;;;;;5.90;4.20;;;;;;;10.11;55.10;100011.71;104379;1251;71980;-55
2023/10/17 16:50:57;;;;;;;8.10;3.40;;;;;;;10.09;54.96;100011.59;104308;1253;68839;-55
2023/10/17 16:53:25;;;;;;;6.20;3.70;;;;;;;10.09;54.89;100015.13;104396;1254;71863;-55
2023/10/17 16:55:53;;;;;;;6.60;4.20;;;;;;;10.00;55.27;100012.11;104363;1263;62540;-55
2023/10/17 16:58:21;;;;;;;;;;;;;;;9.95;55.54;100014.73;104342;1254;60488;-55
2023/10/17 17:00:50;;;;;;;;;;;;;;;9.87;56.91;100014.49;104321;1257;73497;-55
2023/10/17 17:03:21;;;;;;;7.40;3.80;;;;;;;9.80;57.04;100014.02;104449;1256;69182;-55
2023/10/17 17:05:49;;;;;;;8.20;5.10;;;;;;;9.77;56.88;100019.55;104445;1254;72696;-55
2023/10/17 17:08:17;;;;;;;12.70;5.30;;;;;;;9.74;57.34;100014.58;104307;1251;59759;-56
2023/10/17 17:10:45;;;;;;;6.30;4.70;;;;;;;9.69;57.33;100011.06;104879;1253;59733;-56
2023/10/17 17:13:13;;;;;;;6.70;5.20;;;;;;;9.64;58.09;100009.98;104552;1270;72995;-56
2023/10/17 17:15:41;;;;;;;;;;;;;;;9.57;59.08;100015.63;104774;1257;69513;-56
2023/10/17 17:18:15;;;;;;;7.40;5.50;;;;;;;9.48;60.43;100017.67;104244;1256;73027;-55
2023/10/17 17:20:45;;;;;;;7.70;5.00;;;;;;;9.46;60.18;100017.40;104391;1254;59657;-55
2023/10/17 17:23:15;;;;;;;;;;;;;;;9.50;60.27;100020.07;104579;1257;60009;-55
2023/10/17 17:25:46;;;;;;;10.30;6.00;;;;;;;9.44;61.27;100017.47;104436;1256;73333;-55
2023/10/17 17:28:16;;;;;;;;;;;;;;;9.37;60.95;100017.85;104314;1251;69776;-56
2023/10/17 17:30:46;;;;;;;10.20;6.40;;;;;;;9.33;61.64;100018.16;104440;1262;72800;-55
2023/10/17 17:33:14;;;;;;;11.20;6.90;;;;;;;9.31;61.15;100018.74;104973;1254;59799;-56
2023/10/17 17:35:41;;;;;;;12.00;7.30;;;;;;;9.25;62.27;100018.41;108467;1251;59764;-56
2023/10/17 17:38:09;;;;;;;10.10;7.00;;;;;;;9.19;63.27;100019.30;107151;1253;73583;-56
2023/10/17 17:40:39;;;;;;;11.00;6.90;;;;;;;9.15;63.25;100016.61;104445;1256;68713;-56
2023/10/17 17:43:06;;;;;;;13.30;7.70;;;;;;;9.17;63.96;100012.88;105272;1254;73174;-55
2023/10/17 17:45:34;;;;;;;9.80;6.60;;;;;;;9.15;64.20;100015.57;105113;1256;59698;-56
2023/10/17 17:48:02;;;;;;;10.50;7.10;;;;;;;9.13;65.13;100016.52;105108;1254;60038;-56
2023/10/17 17:50:30;;;;;;;8.30;6.30;;;;;;;9.11;64.88;100020.24;104809;1252;72612;-55
2023/10/17 17:52:58;;;;;;;8.60;5.90;;;;;;;9.06;65.93;100020.04;104715;1252;70631;-56
2023/10/17 17:55:27;;;;;;;10.90;6.30;;;;;;;9.01;66.47;100021.45;104579;1251;72972;-59
2023/10/17 17:57:55;;;;;;;8.60;5.50;;;;;;;8.98;66.08;100019.59;104682;1251;60559;-58
2023/10/17 18:00:22;;;;;;;8.50;6.20;;;;;;;8.97;66.44;100024.00;104603;1256;60521;-57
2023/10/17 18:02:53;;;;;;;;;;;;;;;8.98;66.35;100024.65;105009;1251;72992;-56
2023/10/17 18:05:21;;;;;;;11.40;6.60;;;;;;;8.94;67.53;100024.95;104555;1254;70175;-56
2023/10/17 18:07:49;;;;;;;12.10;7.50;;;;;;;8.90;66.84;100028.56;104574;1267;72665;-56
2023/10/17 18:10:17;;;;;;;10.90;7.70;;;;;;;8.89;67.07;100029.65;104480;1251;60474;-56
2023/10/17 18:12:45;;;;;;;;;;;;;;;8.87;67.68;100031.45;104792;1254;60510;-56
2023/10/17 18:15:14;;;;;;;;;;;;;;;8.83;67.78;100036.46;104518;1257;73980;-55
2023/10/17 18:17:44;;;;;;;6.80;4.80;;;;;;;8.81;67.55;100037.58;104745;1257;69579;-56
2023/10/17 18:20:13;;;;;;;7.90;5.10;;;;;;;8.81;67.16;100037.05;104755;1260;72464;-59
2023/10/17 18:22:40;;;;;;;;;;;;;;;8.79;67.04;100037.81;105952;1253;60501;-56
2023/10/17 18:25:09;;;;;;;;;;;;;;;8.75;68.24;100038.78;107594;1251;60497;-56
2023/10/17 18:27:37;;;;;;;6.30;4.50;;;;;;;8.73;68.87;100037.98;105229;1251;73023;-56
2023/10/17 18:30:09;;;;;;;;;;;;;;;8.68;68.63;100036.90;105210;1253;69240;-56
2023/10/17 18:32:37;;;;;;;6.10;4.90;;;;;;;8.69;68.90;100045.80;104649;1267;71830;-55
2023/10/17 18:35:06;;;;;;;11.30;5.00;;;;;;;8.65;69.56;100043.80;104724;1256;60555;-55
2023/10/17 18:37:38;;;;;;;6.50;5.20;;;;;;;8.58;69.77;100044.00;104771;1251;60860;-59
2023/10/17 18:40:13;;;;;;;11.00;6.30;;;;;;;8.54;70.47;100045.34;104405;1256;72995;-56
2023/10/17 18:42:40;;;;;;;12.60;6.10;;;;;;;8.51;70.10;100044.21;104569;1254;69331;-57
2023/10/17 18:45:14;;;;;;;;;;;;;;;8.46;70.33;100041.71;104847;1257;72760;-55
2023/10/17 18:47:43;;;;;;;10.10;6.50;;;;;;;8.47;71.20;100046.42;104425;1269;60623;-55
2023/10/17 18:50:11;;;;;;;11.10;7.30;;;;;;;8.45;71.27;100043.32;104548;1260;60527;-56
2023/10/17 18:52:38;;;;;;;9.50;6.60;;;;;;;8.44;71.41;100046.67;104523;1258;74774;-59
2023/10/17 18:55:10;;;;;;;10.80;7.00;;;;;;;8.37;71.77;100048.74;104836;1260;68273;-56
2023/10/17 18:57:41;;;;;;;11.60;6.60;;;;;;;8.36;71.11;100053.48;104590;1253;72775;-56
2023/10/17 19:00:19;;;;;;;10.90;7.30;;;;;;;8.38;71.63;100053.61;104880;1256;60465;-56
2023/10/17 19:02:49;;;;;;;10.60;7.10;;;;;;;8.39;72.12;100060.05;104914;1256;60524;-56
2023/10/17 19:05:17;;;;;;;11.30;6.30;;;;;;;8.34;73.34;100062.09;104825;1257;73055;-56
2023/10/17 19:07:48;;;;;;;10.00;6.40;;;;;;;8.29;73.81;100060.14;104940;1261;70599;-57
2023/10/17 19:10:17;;;;;;;11.40;7.00;;;;;;;8.24;74.25;100064.47;104583;1256;72690;-55
2023/10/17 19:12:46;;;;;;;10.10;6.40;;;;;;;8.22;74.00;100062.44;104718;1251;60551;-56
2023/10/17 19:15:20;;;;;;;8.70;6.10;;;;;;;8.23;74.08;100062.23;104869;1251;60444;-56
2023/10/17 19:17:50;;;;;;;8.70;6.40;;;;;;;8.23;74.01;100058.56;104530;1257;74756;-55
2023/10/17 19:20:18;;;;;;;11.40;7.20;;;;;;;8.23;73.88;100062.75;104584;1254;68702;-55
2023/10/17 19:22:45;;;;;;;11.10;7.40;;;;;;;8.22;73.74;100060.84;104276;1257;71919;-58
2023/10/17 19:25:15;;;;;;;12.70;7.60;;;;;;;8.21;73.00;100059.30;104432;1260;60549;-56
2023/10/17 19:27:44;;;;;;;11.70;7.60;;;;;;;8.20;73.82;100065.63;104473;1257;61983;-56
2023/10/17 19:30:13;;;;;;;13.60;8.10;;;;;;;8.18;74.38;100067.57;104625;1251;73885;-56
2023/10/17 19:32:41;;;;;;;11.40;7.70;;;;;;;8.16;74.34;100068.16;104528;1253;69577;-58
2023/10/17 19:35:10;;;;;;;;;;;;;;;8.16;73.52;100072.34;105456;1254;74360;-57
2023/10/17 19:37:39;;;;;;;12.40;8.20;;;;;;;8.13;74.82;100076.63;108403;1251;58697;-57
2023/10/17 19:40:08;;;;;;;12.00;8.00;;;;;;;8.10;74.63;100073.56;106238;1256;60529;-58
2023/10/17 19:42:36;;;;;;;10.80;8.10;;;;;;;8.08;74.83;100076.57;104967;1251;72609;-58
2023/10/17 19:45:05;;;;;;;;;;;;;;;8.06;75.15;100079.77;105182;1257;69716;-57
2023/10/17 19:47:34;;;;;;;12.90;9.10;;;;;;;8.00;76.22;100080.09;104805;1254;72462;-56
2023/10/17 19:50:03;;;;;;;11.90;9.10;;;;;;;7.97;76.11;100083.48;104950;1254;61160;-57
2023/10/17 19:52:31;;;;;;;17.00;9.20;;;;;;;7.92;76.21;100082.21;104784;1254;60637;-57
2023/10/17 19:54:59;;;;;;;14.00;9.50;;;;;;;7.88;76.29;100081.95;104602;1256;73679;-57
2023/10/17 19:57:27;;;;;;;13.30;8.80;;;;;;;7.86;77.28;100081.14;104501;1254;69620;-56
2023/10/17 19:59:55;;;;;;;12.70;8.40;;;;;;;7.87;77.09;100079.88;104447;1256;72603;-57
2023/10/17 20:02:23;;;;;;;;;;;;;;;7.78;76.81;100063.17;104614;1254;60541;-56
2023/10/17 20:04:51;;;;;;;12.40;8.90;;;;;;;7.89;76.53;100080.02;104452;1256;60600;-57
2023/10/17 20:07:21;;;;;;;12.90;9.10;;;;;;;7.89;76.20;100078.80;104853;1254;74162;-56
2023/10/17 20:09:49;;;;;;;13.20;8.70;;;;;;;7.86;76.55;100079.40;104364;1256;69809;-58
2023/10/17 20:12:17;;;;;;;13.00;9.00;;;;;;;7.83;76.83;100080.35;104376;1257;71323;-56
2023/10/17 20:14:44;;;;;;;13.70;9.30;;;;;;;7.80;77.16;100080.77;104699;1257;60708;-57
2023/10/17 20:17:14;;;;;;;14.00;8.50;;;;;;;7.75;77.36;100077.38;104593;1257;60571;-57
